createdAt,value
2019-06-07T00:00:43.095Z,0.00
2019-06-07T00:01:43.136Z,0.00
2019-06-07T00:02:43.176Z,0.00
2019-06-07T00:03:43.213Z,0.00
2019-06-07T00:04:43.252Z,0.00
2019-06-07T00:05:43.290Z,0.00
2019-06-07T00:06:43.329Z,0.00
2019-06-07T00:07:43.366Z,0.00
2019-06-07T00:08:43.463Z,0.00
2019-06-07T00:09:43.446Z,0.00
2019-06-07T00:10:43.486Z,0.00
2019-06-07T00:11:43.523Z,0.00
2019-06-07T00:12:43.560Z,0.00
2019-06-07T00:13:43.603Z,0.00
2019-06-07T00:14:43.640Z,0.00
2019-06-07T00:15:43.683Z,0.00
2019-06-07T00:16:43.727Z,0.00
2019-06-07T00:17:43.870Z,0.00
2019-06-07T00:18:43.792Z,0.00
2019-06-07T00:19:43.831Z,0.00
2019-06-07T00:20:43.896Z,0.00
2019-06-07T00:22:18.329Z,0.00
2019-06-07T00:22:43.948Z,0.00
2019-06-07T00:23:43.986Z,0.00
2019-06-07T00:24:44.027Z,0.00
2019-06-07T00:25:44.063Z,0.00
2019-06-07T00:26:57.746Z,0.00
2019-06-07T00:27:44.140Z,0.00
2019-06-07T00:28:44.179Z,0.00
2019-06-07T00:29:44.218Z,0.00
2019-06-07T00:30:51.734Z,0.00
2019-06-07T00:31:44.298Z,4.00
2019-06-07T00:32:44.333Z,4.00
2019-06-07T00:33:44.374Z,4.00
2019-06-07T00:34:44.413Z,4.00
2019-06-07T00:35:44.450Z,4.00
2019-06-07T00:36:44.497Z,0.00
2019-06-07T00:37:44.529Z,0.00
2019-06-07T00:38:44.565Z,4.00
2019-06-07T00:39:44.606Z,4.00
2019-06-07T00:40:44.642Z,4.00
2019-06-07T00:41:44.687Z,4.00
2019-06-07T00:42:44.720Z,8.00
2019-06-07T00:43:44.759Z,4.00
2019-06-07T00:44:44.797Z,4.00
2019-06-07T00:45:44.837Z,4.00
2019-06-07T00:46:44.873Z,8.00
2019-06-07T00:47:44.916Z,8.00
2019-06-07T00:48:45.007Z,4.00
2019-06-07T00:49:44.988Z,8.00
2019-06-07T00:50:45.027Z,8.00
2019-06-07T00:51:50.296Z,8.00
2019-06-07T00:53:45.139Z,12.00
2019-06-07T00:54:45.184Z,12.00
2019-06-07T00:55:45.219Z,12.00
2019-06-07T00:56:45.259Z,12.00
2019-06-07T00:57:45.293Z,16.00
2019-06-07T00:58:45.332Z,16.00
2019-06-07T00:59:45.367Z,16.00
2019-06-07T01:00:45.408Z,20.00
2019-06-07T01:01:45.444Z,20.00
2019-06-07T01:02:45.485Z,24.00
2019-06-07T01:03:45.519Z,28.00
2019-06-07T01:04:45.557Z,28.00
2019-06-07T01:05:45.596Z,28.00
2019-06-07T01:06:45.637Z,36.00
2019-06-07T01:07:45.673Z,36.00
2019-06-07T01:08:45.710Z,40.00
2019-06-07T01:09:45.747Z,44.00
2019-06-07T01:10:53.632Z,48.00
2019-06-07T01:11:45.839Z,52.00
2019-06-07T01:12:45.866Z,60.00
2019-06-07T01:13:45.898Z,60.00
2019-06-07T01:14:46.019Z,68.00
2019-06-07T01:15:45.976Z,72.00
2019-06-07T01:16:57.184Z,76.00
2019-06-07T01:18:31.276Z,84.00
2019-06-07T01:18:51.008Z,92.00
2019-06-07T01:19:46.122Z,96.00
2019-06-07T01:20:46.163Z,104.00
2019-06-07T01:21:46.202Z,112.00
2019-06-07T01:22:46.264Z,120.00
2019-06-07T01:24:08.119Z,128.00
2019-06-07T01:24:46.313Z,136.00
2019-06-07T01:25:46.352Z,148.00
2019-06-07T01:26:46.389Z,156.00
2019-06-07T01:27:46.428Z,168.00
2019-06-07T01:28:46.464Z,180.00
2019-06-07T01:29:46.506Z,192.00
2019-06-07T01:30:46.540Z,204.00
2019-06-07T01:31:46.580Z,220.00
2019-06-07T01:32:46.617Z,232.00
2019-06-07T01:33:50.750Z,244.00
2019-06-07T01:34:46.700Z,256.00
2019-06-07T01:35:46.733Z,276.00
2019-06-07T01:36:46.768Z,292.00
2019-06-07T01:37:46.805Z,304.00
2019-06-07T01:38:46.844Z,320.00
2019-06-07T01:39:46.882Z,340.00
2019-06-07T01:40:46.920Z,360.00
2019-06-07T01:41:46.958Z,372.00
2019-06-07T01:42:47.027Z,392.00
2019-06-07T01:43:47.032Z,412.00
2019-06-07T01:44:47.089Z,432.00
2019-06-07T01:45:47.110Z,452.00
2019-06-07T01:46:47.148Z,472.00
2019-06-07T01:47:47.191Z,492.00
2019-06-07T01:48:49.835Z,516.00
2019-06-07T01:49:47.263Z,540.00
2019-06-07T01:50:47.303Z,560.00
2019-06-07T01:51:47.338Z,588.00
2019-06-07T01:52:47.375Z,608.00
2019-06-07T01:53:47.414Z,628.00
2019-06-07T01:54:57.976Z,656.00
2019-06-07T01:55:47.492Z,680.00
2019-06-07T01:56:47.555Z,704.00
2019-06-07T01:57:48.690Z,732.00
2019-06-07T01:58:47.606Z,764.00
2019-06-07T01:59:47.644Z,792.00
2019-06-07T02:00:47.681Z,820.00
2019-06-07T02:01:47.720Z,852.00
2019-06-07T02:02:47.764Z,884.00
2019-06-07T02:03:47.799Z,916.00
2019-06-07T02:04:48.075Z,944.00
2019-06-07T02:05:47.874Z,984.00
2019-06-07T02:06:47.911Z,1016.00
2019-06-07T02:07:47.951Z,1052.00
2019-06-07T02:08:47.988Z,1088.00
2019-06-07T02:09:48.025Z,1124.00
2019-06-07T02:10:48.071Z,1164.00
2019-06-07T02:11:48.101Z,1204.00
2019-06-07T02:12:48.139Z,1244.00
2019-06-07T02:13:48.183Z,1284.00
2019-06-07T02:14:48.216Z,1328.00
2019-06-07T02:15:48.253Z,1364.00
2019-06-07T02:16:48.292Z,1404.00
2019-06-07T02:17:48.331Z,1444.00
2019-06-07T02:19:01.233Z,1492.00
2019-06-07T02:19:48.409Z,1532.00
2019-06-07T02:20:48.444Z,1576.00
2019-06-07T02:21:48.485Z,1612.00
2019-06-07T02:22:48.522Z,1644.00
2019-06-07T02:23:48.563Z,1680.00
2019-06-07T02:25:34.138Z,1708.00
2019-06-07T02:25:50.600Z,1736.00
2019-06-07T02:26:48.676Z,1752.00
2019-06-07T02:27:48.716Z,1784.00
2019-06-07T02:28:48.754Z,1832.00
2019-06-07T02:29:48.793Z,1872.00
2019-06-07T02:30:59.512Z,1920.00
2019-06-07T02:31:48.868Z,1944.00
2019-06-07T02:32:48.907Z,1964.00
2019-06-07T02:33:48.942Z,1988.00
2019-06-07T02:34:48.983Z,2020.00
2019-06-07T02:35:49.020Z,2048.00
2019-06-07T02:36:49.058Z,2052.00
2019-06-07T02:37:49.096Z,2048.00
2019-06-07T02:38:49.140Z,2076.00
2019-06-07T02:39:49.172Z,2112.00
2019-06-07T02:40:49.213Z,2148.00
2019-06-07T02:41:49.252Z,2184.00
2019-06-07T02:42:49.388Z,2216.00
2019-06-07T02:43:49.325Z,2228.00
2019-06-07T02:44:49.363Z,2224.00
2019-06-07T02:45:49.403Z,2184.00
2019-06-07T02:46:50.121Z,2152.00
2019-06-07T02:47:49.483Z,2144.00
2019-06-07T02:48:49.520Z,2144.00
2019-06-07T02:49:49.556Z,2136.00
2019-06-07T02:50:49.621Z,2144.00
2019-06-07T02:51:49.636Z,2156.00
2019-06-07T02:52:49.675Z,2180.00
2019-06-07T02:53:49.710Z,2200.00
2019-06-07T02:54:49.746Z,2220.00
2019-06-07T02:56:34.239Z,2224.00
2019-06-07T02:56:58.038Z,2244.00
2019-06-07T02:57:49.873Z,2276.00
2019-06-07T02:58:49.900Z,2292.00
2019-06-07T03:00:06.545Z,2300.00
2019-06-07T03:01:09.175Z,2304.00
2019-06-07T03:01:50.012Z,2340.00
2019-06-07T03:02:50.059Z,2288.00
2019-06-07T03:03:50.088Z,2296.00
2019-06-07T03:04:50.126Z,2300.00
2019-06-07T03:05:50.165Z,2312.00
2019-06-07T03:06:50.212Z,2324.00
2019-06-07T03:07:50.247Z,2348.00
2019-06-07T03:08:50.281Z,2372.00
2019-06-07T03:09:50.317Z,2404.00
2019-06-07T03:10:50.357Z,2440.00
2019-06-07T03:11:50.397Z,2484.00
2019-06-07T03:12:50.435Z,2544.00
2019-06-07T03:13:50.474Z,2596.00
2019-06-07T03:14:50.507Z,2632.00
2019-06-07T03:15:50.573Z,2672.00
2019-06-07T03:16:50.588Z,2720.00
2019-06-07T03:17:50.652Z,2768.00
2019-06-07T03:18:50.660Z,2816.00
2019-06-07T03:19:50.702Z,2860.00
2019-06-07T03:21:04.540Z,2896.00
2019-06-07T03:21:50.775Z,2944.00
2019-06-07T03:22:50.814Z,3024.00
2019-06-07T03:23:50.852Z,3092.00
2019-06-07T03:24:50.892Z,3144.00
2019-06-07T03:25:50.928Z,3188.00
2019-06-07T03:27:51.009Z,3368.00
2019-06-07T03:28:51.046Z,3424.00
2019-06-07T03:29:51.081Z,3468.00
2019-06-07T03:31:01.464Z,3512.00
2019-06-07T03:31:51.182Z,3584.00
2019-06-07T03:32:52.206Z,3960.00
2019-06-07T03:33:51.236Z,4268.00
2019-06-07T03:34:51.272Z,4676.00
2019-06-07T03:35:51.309Z,4720.00
2019-06-07T03:36:51.349Z,4724.00
2019-06-07T03:37:51.390Z,4760.00
2019-06-07T03:38:51.430Z,4808.00
2019-06-07T03:39:51.464Z,4872.00
2019-06-07T03:40:51.501Z,4904.00
2019-06-07T03:42:05.690Z,4952.00
2019-06-07T03:42:51.578Z,4980.00
2019-06-07T03:43:51.620Z,5008.00
2019-06-07T03:44:51.657Z,5036.00
2019-06-07T03:45:51.698Z,5044.00
2019-06-07T03:46:51.734Z,5056.00
2019-06-07T03:47:52.445Z,5020.00
2019-06-07T03:48:51.812Z,5076.00
2019-06-07T03:49:51.853Z,5252.00
2019-06-07T03:51:04.326Z,5232.00
2019-06-07T03:51:51.927Z,5284.00
2019-06-07T03:52:51.966Z,5340.00
2019-06-07T03:53:52.005Z,5384.00
2019-06-07T03:54:52.044Z,5488.00
2019-06-07T03:55:52.088Z,5504.00
2019-06-07T03:56:52.119Z,5536.00
2019-06-07T03:58:52.200Z,5584.00
2019-06-07T03:59:52.238Z,7232.00
2019-06-07T04:00:52.277Z,5748.00
2019-06-07T04:01:52.318Z,5828.00
2019-06-07T04:02:52.355Z,6652.00
2019-06-07T04:03:52.396Z,6152.00
2019-06-07T04:04:52.432Z,6164.00
2019-06-07T04:05:52.475Z,5884.00
2019-06-07T04:06:52.586Z,5940.00
2019-06-07T04:07:52.555Z,5956.00
2019-06-07T04:08:52.592Z,5972.00
2019-06-07T04:09:52.632Z,6012.00
2019-06-07T04:10:59.881Z,6044.00
2019-06-07T04:11:52.713Z,6052.00
2019-06-07T04:12:52.751Z,6072.00
2019-06-07T04:13:52.791Z,6140.00
2019-06-07T04:14:52.835Z,6180.00
2019-06-07T04:15:52.937Z,6176.00
2019-06-07T04:16:52.971Z,6264.00
2019-06-07T04:18:01.987Z,6452.00
2019-06-07T04:18:52.988Z,6556.00
2019-06-07T04:19:53.027Z,7012.00
2019-06-07T04:20:53.070Z,7516.00
2019-06-07T04:21:53.141Z,8496.00
2019-06-07T04:22:53.147Z,9368.00
2019-06-07T04:23:53.185Z,9224.00
2019-06-07T04:24:53.236Z,8728.00
2019-06-07T04:25:53.266Z,8780.00
2019-06-07T04:26:53.322Z,9816.00
2019-06-07T04:27:53.348Z,9364.00
2019-06-07T04:29:31.754Z,10768.00
2019-06-07T04:30:06.573Z,11460.00
2019-06-07T04:30:53.472Z,11632.00
2019-06-07T04:31:53.508Z,11392.00
2019-06-07T04:32:53.557Z,11608.00
2019-06-07T04:33:53.590Z,9332.00
2019-06-07T04:34:53.631Z,9932.00
2019-06-07T04:35:53.672Z,9724.00
2019-06-07T04:36:58.958Z,10984.00
2019-06-07T04:37:53.756Z,12092.00
2019-06-07T04:38:53.799Z,12144.00
2019-06-07T04:39:53.917Z,12188.00
2019-06-07T04:40:53.880Z,12176.00
2019-06-07T04:41:53.924Z,12256.00
2019-06-07T04:42:53.966Z,12352.00
2019-06-07T04:43:54.008Z,12636.00
2019-06-07T04:44:54.050Z,12748.00
2019-06-07T04:45:54.096Z,12728.00
2019-06-07T04:46:54.143Z,12980.00
2019-06-07T04:47:54.182Z,13064.00
2019-06-07T04:48:54.252Z,13320.00
2019-06-07T04:49:54.270Z,13548.00
2019-06-07T04:50:54.310Z,13680.00
2019-06-07T04:51:54.354Z,13600.00
2019-06-07T04:52:54.401Z,13488.00
2019-06-07T04:53:54.448Z,12864.00
2019-06-07T04:54:54.497Z,13276.00
2019-06-07T04:55:54.532Z,13240.00
2019-06-07T04:56:54.575Z,8812.00
2019-06-07T04:57:54.618Z,12180.00
2019-06-07T04:58:54.664Z,13088.00
2019-06-07T05:00:11.952Z,14024.00
2019-06-07T05:01:02.572Z,14104.00
2019-06-07T05:01:54.798Z,14440.00
2019-06-07T05:02:54.845Z,14724.00
2019-06-07T05:03:54.889Z,14908.00
2019-06-07T05:04:54.936Z,14976.00
2019-06-07T05:05:55.014Z,14932.00
2019-06-07T05:06:55.025Z,15008.00
2019-06-07T05:07:55.073Z,15360.00
2019-06-07T05:08:55.118Z,15616.00
2019-06-07T05:09:55.165Z,15648.00
2019-06-07T05:10:55.217Z,15616.00
2019-06-07T05:11:55.255Z,15680.00
2019-06-07T05:12:55.314Z,15456.00
2019-06-07T05:13:55.348Z,15488.00
2019-06-07T05:14:55.397Z,15456.00
2019-06-07T05:15:55.443Z,15584.00
2019-06-07T05:16:55.489Z,15776.00
2019-06-07T05:17:55.539Z,15776.00
2019-06-07T05:18:55.585Z,15776.00
2019-06-07T05:19:55.628Z,15808.00
2019-06-07T05:20:55.678Z,15840.00
2019-06-07T05:22:04.385Z,15872.00
2019-06-07T05:22:55.771Z,16096.00
2019-06-07T05:24:06.335Z,15936.00
2019-06-07T05:24:55.927Z,15936.00
2019-06-07T05:25:55.915Z,15904.00
2019-06-07T05:26:55.970Z,16000.00
2019-06-07T05:27:56.010Z,16160.00
2019-06-07T05:28:56.056Z,16288.00
2019-06-07T05:30:09.638Z,16352.00
2019-06-07T05:31:05.756Z,16640.00
2019-06-07T05:31:56.201Z,16832.00
2019-06-07T05:32:56.253Z,17088.00
2019-06-07T05:33:56.301Z,17216.00
2019-06-07T05:34:56.385Z,17280.00
2019-06-07T05:35:56.397Z,17536.00
2019-06-07T05:37:11.094Z,17760.00
2019-06-07T05:37:56.494Z,18144.00
2019-06-07T05:38:56.543Z,18624.00
2019-06-07T05:39:56.588Z,18752.00
2019-06-07T05:40:56.638Z,18624.00
2019-06-07T05:41:56.686Z,18784.00
2019-06-07T05:42:56.740Z,19008.00
2019-06-07T05:44:12.166Z,18976.00
2019-06-07T05:44:56.833Z,18944.00
2019-06-07T05:45:56.885Z,19264.00
2019-06-07T05:46:56.931Z,19456.00
2019-06-07T05:47:56.984Z,19680.00
2019-06-07T05:48:57.024Z,19840.00
2019-06-07T05:49:57.100Z,20160.00
2019-06-07T05:50:57.766Z,20416.00
2019-06-07T05:51:57.174Z,20448.00
2019-06-07T05:52:57.249Z,20512.00
2019-06-07T05:53:57.266Z,20928.00
2019-06-07T05:54:57.314Z,20896.00
2019-06-07T05:55:57.363Z,20992.00
2019-06-07T05:56:57.409Z,21344.00
2019-06-07T05:57:57.460Z,21568.00
2019-06-07T05:58:57.531Z,22144.00
2019-06-07T05:59:57.554Z,21920.00
2019-06-07T06:01:40.814Z,22432.00
2019-06-07T06:02:05.063Z,22592.00
2019-06-07T06:03:05.206Z,22368.00
2019-06-07T06:03:57.743Z,23264.00
2019-06-07T06:04:57.792Z,22784.00
2019-06-07T06:05:57.840Z,22528.00
2019-06-07T06:06:57.888Z,22752.00
2019-06-07T06:07:57.940Z,23200.00
2019-06-07T06:09:13.197Z,24064.00
2019-06-07T06:09:58.029Z,24832.00
2019-06-07T06:10:58.076Z,25312.00
2019-06-07T06:12:02.230Z,25024.00
2019-06-07T06:12:58.169Z,24864.00
2019-06-07T06:14:07.455Z,25216.00
2019-06-07T06:14:58.265Z,25472.00
2019-06-07T06:16:02.067Z,25728.00
2019-06-07T06:16:58.365Z,25888.00
2019-06-07T06:17:58.408Z,26528.00
2019-06-07T06:18:58.460Z,26080.00
2019-06-07T06:19:58.749Z,27232.00
2019-06-07T06:21:16.260Z,27744.00
2019-06-07T06:21:58.595Z,27584.00
2019-06-07T06:22:58.645Z,27680.00
2019-06-07T06:23:58.690Z,28160.00
2019-06-07T06:25:30.942Z,28480.00
2019-06-07T06:25:58.783Z,28192.00
2019-06-07T06:27:15.281Z,28288.00
2019-06-07T06:28:12.042Z,29856.00
2019-06-07T06:28:58.926Z,30144.00
2019-06-07T06:29:58.975Z,29504.00
2019-06-07T06:30:59.026Z,29792.00
2019-06-07T06:32:59.155Z,30368.00
2019-06-07T06:33:59.182Z,30272.00
2019-06-07T06:34:59.212Z,31008.00
2019-06-07T06:35:59.259Z,31232.00
2019-06-07T06:36:59.306Z,31040.00
2019-06-07T06:37:59.580Z,30496.00
2019-06-07T06:38:59.405Z,30880.00
2019-06-07T06:39:59.450Z,31872.00
2019-06-07T06:41:15.142Z,32832.00
2019-06-07T06:42:03.655Z,32320.00
2019-06-07T06:42:59.598Z,32928.00
2019-06-07T06:43:59.646Z,33120.00
2019-06-07T06:44:59.695Z,33728.00
2019-06-07T06:45:59.743Z,33472.00
2019-06-07T06:46:59.789Z,33632.00
2019-06-07T06:47:59.840Z,34528.00
2019-06-07T06:48:59.887Z,35744.00
2019-06-07T06:49:59.939Z,35648.00
2019-06-07T06:50:59.985Z,35424.00
2019-06-07T06:52:00.037Z,36288.00
2019-06-07T06:53:00.084Z,35936.00
2019-06-07T06:54:00.137Z,36320.00
2019-06-07T06:55:01.211Z,35392.00
2019-06-07T06:56:00.231Z,36192.00
2019-06-07T06:57:18.106Z,38304.00
2019-06-07T06:58:00.333Z,38240.00
2019-06-07T06:59:33.988Z,39008.00
2019-06-07T07:00:00.438Z,39552.00
2019-06-07T07:01:06.628Z,38080.00
2019-06-07T07:02:00.528Z,37824.00
2019-06-07T07:03:47.155Z,37856.00
2019-06-07T07:04:12.231Z,38304.00
2019-06-07T07:05:00.678Z,38688.00
2019-06-07T07:06:24.603Z,38016.00
2019-06-07T07:07:00.777Z,39008.00
2019-06-07T07:08:00.826Z,39840.00
2019-06-07T07:09:00.881Z,40736.00
2019-06-07T07:10:00.946Z,41088.00
2019-06-07T07:11:00.979Z,41632.00
2019-06-07T07:12:11.954Z,41152.00
2019-06-07T07:13:01.079Z,40448.00
2019-06-07T07:14:01.126Z,41248.00
2019-06-07T07:15:01.179Z,42272.00
2019-06-07T07:16:01.366Z,42720.00
2019-06-07T07:17:01.276Z,42880.00
2019-06-07T07:18:08.570Z,42752.00
2019-06-07T07:19:01.383Z,43872.00
2019-06-07T07:20:01.428Z,43776.00
2019-06-07T07:21:01.478Z,44256.00
2019-06-07T07:22:01.605Z,46112.00
2019-06-07T07:23:01.577Z,46624.00
2019-06-07T07:24:20.191Z,46304.00
2019-06-07T07:25:01.678Z,43808.00
2019-06-07T07:26:01.731Z,42016.00
2019-06-07T07:27:01.779Z,39840.00
2019-06-07T07:28:01.830Z,41440.00
2019-06-07T07:29:01.878Z,43296.00
2019-06-07T07:30:35.637Z,43232.00
2019-06-07T07:31:01.979Z,44736.00
2019-06-07T07:32:02.027Z,45632.00
2019-06-07T07:33:02.158Z,43840.00
2019-06-07T07:35:02.183Z,46464.00
2019-06-07T07:36:19.052Z,47168.00
2019-06-07T07:37:02.279Z,47392.00
2019-06-07T07:38:02.336Z,47648.00
2019-06-07T07:39:05.309Z,48160.00
2019-06-07T07:40:54.895Z,46784.00
2019-06-07T07:41:13.804Z,46848.00
2019-06-07T07:42:20.080Z,48320.00
2019-06-07T07:43:02.590Z,49408.00
2019-06-07T07:44:07.156Z,49728.00
2019-06-07T07:45:02.716Z,51680.00
2019-06-07T07:46:06.074Z,52128.00
2019-06-07T07:47:02.788Z,52512.00
2019-06-07T07:48:15.718Z,53568.00
2019-06-07T07:49:02.893Z,54528.00
2019-06-07T07:50:02.940Z,53344.00
2019-06-07T07:51:03.433Z,52512.00
2019-06-07T07:52:03.084Z,54336.00
2019-06-07T07:53:03.104Z,54560.00
2019-06-07T07:54:10.551Z,54656.00
2019-06-07T07:55:03.202Z,54752.00
2019-06-07T07:56:03.335Z,54976.00
2019-06-07T07:57:03.304Z,55744.00
2019-06-07T07:58:03.353Z,54688.00
2019-06-07T07:59:03.593Z,53536.00
2019-06-07T08:00:36.730Z,53536.00
2019-06-07T08:01:10.229Z,55840.00
2019-06-07T08:02:03.563Z,54784.00
2019-06-07T08:03:04.436Z,54144.00
2019-06-07T08:04:03.667Z,54208.00
2019-06-07T08:05:22.069Z,56096.00
2019-06-07T08:06:03.768Z,57152.00
2019-06-07T08:07:03.819Z,59232.00
2019-06-07T08:08:07.494Z,59136.00
2019-06-07T08:09:03.924Z,59104.00
2019-06-07T08:10:04.579Z,59328.00
2019-06-07T08:11:04.090Z,57920.00
2019-06-07T08:12:04.092Z,59456.00
2019-06-07T08:13:23.495Z,62112.00
2019-06-07T08:14:04.182Z,61984.00
2019-06-07T08:15:04.369Z,62784.00
2019-06-07T08:16:08.965Z,61888.00
2019-06-07T08:17:04.341Z,61056.00
2019-06-07T08:18:04.850Z,62432.00
2019-06-07T08:19:04.715Z,64192.00
2019-06-07T08:20:04.498Z,65152.00
2019-06-07T08:21:23.616Z,63200.00
2019-06-07T08:22:04.608Z,61504.00
2019-06-07T08:23:04.657Z,63360.00
2019-06-07T08:24:05.553Z,65856.00
2019-06-07T08:25:04.763Z,65344.00
2019-06-07T08:26:04.824Z,62688.00
2019-06-07T08:27:25.318Z,63456.00
2019-06-07T08:28:04.920Z,65248.00
2019-06-07T08:29:04.979Z,64768.00
2019-06-07T08:30:35.046Z,66208.00
2019-06-07T08:31:07.124Z,64768.00
2019-06-07T08:32:05.131Z,63904.00
2019-06-07T08:33:24.894Z,66784.00
2019-06-07T08:34:05.237Z,66784.00
2019-06-07T08:35:06.714Z,66112.00
2019-06-07T08:36:19.401Z,67040.00
2019-06-07T08:37:05.400Z,65696.00
2019-06-07T08:38:24.961Z,66144.00
2019-06-07T08:39:07.487Z,68128.00
2019-06-07T08:40:05.630Z,69920.00
2019-06-07T08:41:11.985Z,69056.00
2019-06-07T08:42:21.233Z,66880.00
2019-06-07T08:43:18.186Z,67200.00
2019-06-07T08:44:22.736Z,67040.00
2019-06-07T08:45:05.906Z,65760.00
2019-06-07T08:46:07.830Z,60608.00
2019-06-07T08:47:19.897Z,55552.00
2019-06-07T08:48:26.652Z,59360.00
2019-06-07T08:49:06.048Z,69984.00
2019-06-07T08:50:07.911Z,71648.00
2019-06-07T08:51:08.572Z,70816.00
2019-06-07T08:52:11.777Z,72480.00
2019-06-07T08:53:12.169Z,72640.00
2019-06-07T08:54:21.808Z,72096.00
2019-06-07T08:55:06.369Z,66560.00
2019-06-07T08:56:10.524Z,72288.00
2019-06-07T08:57:20.522Z,72960.00
2019-06-07T08:58:08.722Z,73504.00
2019-06-07T08:59:11.505Z,60544.00
2019-06-07T09:00:41.833Z,44736.00
2019-06-07T09:01:08.950Z,50400.00
2019-06-07T09:02:22.831Z,38080.00
2019-06-07T09:03:07.581Z,36256.00
2019-06-07T09:04:10.995Z,43904.00
2019-06-07T09:05:12.289Z,49408.00
2019-06-07T09:06:40.754Z,47904.00
2019-06-07T09:07:18.957Z,37216.00
2019-06-07T09:08:28.739Z,36672.00
2019-06-07T09:09:07.128Z,84928.00
2019-06-07T09:10:13.428Z,81984.00
2019-06-07T09:11:11.162Z,82592.00
2019-06-07T09:12:11.167Z,81984.00
2019-06-07T09:13:11.317Z,79392.00
2019-06-07T09:14:09.197Z,70528.00
2019-06-07T09:15:20.848Z,68128.00
2019-06-07T09:16:08.995Z,73184.00
2019-06-07T09:17:12.075Z,72512.00
2019-06-07T09:18:37.806Z,70304.00
2019-06-07T09:19:10.937Z,73248.00
2019-06-07T09:20:28.312Z,73408.00
2019-06-07T09:21:09.727Z,71936.00
2019-06-07T09:22:11.086Z,71968.00
2019-06-07T09:23:16.279Z,71840.00
2019-06-07T09:24:11.331Z,72608.00
2019-06-07T09:25:19.865Z,70560.00
2019-06-07T09:26:17.644Z,71264.00
2019-06-07T09:27:10.384Z,73120.00
2019-06-07T09:28:19.125Z,73056.00
2019-06-07T09:29:11.054Z,73312.00
2019-06-07T09:30:16.032Z,71456.00
2019-06-07T09:31:10.443Z,73696.00
2019-06-07T09:32:14.821Z,77408.00
2019-06-07T09:33:09.053Z,79520.00
2019-06-07T09:34:14.528Z,67424.00
2019-06-07T09:35:16.503Z,53248.00
2019-06-07T09:36:12.538Z,67008.00
2019-06-07T09:37:54.687Z,55712.00
2019-06-07T09:38:23.764Z,62208.00
2019-06-07T09:39:12.491Z,46432.00
2019-06-07T09:40:21.683Z,47904.00
2019-06-07T09:41:09.797Z,49856.00
2019-06-07T09:42:11.995Z,53888.00
2019-06-07T09:44:21.392Z,45888.00
2019-06-07T09:45:13.708Z,55936.00
2019-06-07T09:46:12.995Z,69056.00
2019-06-07T09:47:30.712Z,55648.00
2019-06-07T09:48:13.398Z,62560.00
2019-06-07T09:49:16.725Z,81632.00
2019-06-07T09:50:12.166Z,78304.00
2019-06-07T09:51:19.514Z,80192.00
2019-06-07T09:52:11.029Z,78432.00
2019-06-07T09:53:21.125Z,74848.00
2019-06-07T09:54:11.475Z,76608.00
2019-06-07T09:55:23.130Z,80192.00
2019-06-07T09:56:12.076Z,78880.00
2019-06-07T09:57:16.665Z,78112.00
2019-06-07T09:58:49.751Z,82304.00
2019-06-07T09:59:12.842Z,50048.00
2019-06-07T10:00:36.814Z,44384.00
2019-06-07T10:01:13.528Z,44192.00
2019-06-07T10:02:13.607Z,26784.00
2019-06-07T10:03:20.752Z,28256.00
2019-06-07T10:04:28.231Z,29120.00
2019-06-07T10:05:14.159Z,31648.00
2019-06-07T10:06:13.725Z,39552.00
2019-06-07T10:07:28.851Z,43328.00
2019-06-07T10:08:41.340Z,54304.00
2019-06-07T10:11:10.465Z,94912.00
2019-06-07T10:12:10.514Z,85504.00
2019-06-07T10:13:10.586Z,66816.00
2019-06-07T10:14:10.626Z,66496.00
2019-06-07T10:15:10.669Z,48736.00
2019-06-07T10:16:10.721Z,73952.00
2019-06-07T10:17:10.775Z,55328.00
2019-06-07T10:18:10.827Z,54688.00
2019-06-07T10:19:10.879Z,64768.00
2019-06-07T10:20:10.929Z,87584.00
2019-06-07T10:21:15.040Z,64928.00
2019-06-07T10:22:11.033Z,67296.00
2019-06-07T10:23:11.100Z,78176.00
2019-06-07T10:24:11.167Z,56416.00
2019-06-07T10:25:11.188Z,59104.00
2019-06-07T10:26:11.240Z,61568.00
2019-06-07T10:27:11.298Z,76704.00
2019-06-07T10:28:11.351Z,84160.00
2019-06-07T10:29:11.396Z,82080.00
2019-06-07T10:30:11.450Z,81824.00
2019-06-07T10:31:11.550Z,79744.00
2019-06-07T10:32:11.665Z,74880.00
2019-06-07T10:33:11.661Z,75616.00
2019-06-07T10:34:11.660Z,78144.00
2019-06-07T10:35:16.083Z,77664.00
2019-06-07T10:36:11.765Z,77408.00
2019-06-07T10:37:15.467Z,79008.00
2019-06-07T10:38:11.875Z,80672.00
2019-06-07T10:39:11.926Z,82816.00
2019-06-07T10:40:11.977Z,84256.00
2019-06-07T10:41:12.030Z,82208.00
2019-06-07T10:42:12.086Z,81952.00
2019-06-07T10:43:14.443Z,83648.00
2019-06-07T10:44:12.190Z,79904.00
2019-06-07T10:45:12.438Z,77824.00
2019-06-07T10:46:12.300Z,76704.00
2019-06-07T10:47:12.442Z,68544.00
2019-06-07T10:48:12.407Z,57280.00
2019-06-07T10:49:12.467Z,49504.00
2019-06-07T10:50:12.516Z,50976.00
2019-06-07T10:51:14.831Z,57760.00
2019-06-07T10:52:13.332Z,60736.00
2019-06-07T10:53:12.684Z,62528.00
2019-06-07T10:54:24.836Z,62400.00
2019-06-07T10:55:12.781Z,62400.00
2019-06-07T10:56:13.381Z,70112.00
2019-06-07T10:57:16.024Z,75680.00
2019-06-07T10:58:13.286Z,75680.00
2019-06-07T10:59:13.703Z,73600.00
2019-06-07T11:00:13.617Z,82368.00
2019-06-07T11:01:14.417Z,85920.00
2019-06-07T11:02:14.087Z,86112.00
2019-06-07T11:03:14.233Z,86464.00
2019-06-07T11:04:13.804Z,84960.00
2019-06-07T11:05:14.454Z,83136.00
2019-06-07T11:06:14.287Z,82368.00
2019-06-07T11:07:14.502Z,82592.00
2019-06-07T11:08:14.918Z,84448.00
2019-06-07T11:09:14.257Z,86432.00
2019-06-07T11:10:19.481Z,85472.00
2019-06-07T11:11:14.395Z,84256.00
2019-06-07T11:12:15.241Z,82176.00
2019-06-07T11:13:14.461Z,81216.00
2019-06-07T11:14:14.783Z,80000.00
2019-06-07T11:15:15.024Z,79040.00
2019-06-07T11:16:15.526Z,76000.00
2019-06-07T11:17:15.566Z,69056.00
2019-06-07T11:18:14.420Z,64544.00
2019-06-07T11:19:17.430Z,71616.00
2019-06-07T11:20:14.466Z,80640.00
2019-06-07T11:21:14.386Z,82880.00
2019-06-07T11:22:14.306Z,83200.00
2019-06-07T11:23:14.409Z,82912.00
2019-06-07T11:24:14.512Z,80864.00
2019-06-07T11:25:14.778Z,80288.00
2019-06-07T11:26:14.583Z,84832.00
2019-06-07T11:27:16.390Z,86176.00
2019-06-07T11:28:14.826Z,86592.00
2019-06-07T11:29:15.128Z,85856.00
2019-06-07T11:30:14.685Z,86400.00
2019-06-07T11:31:15.171Z,89376.00
2019-06-07T11:32:14.797Z,89056.00
2019-06-07T11:33:16.338Z,88160.00
2019-06-07T11:34:14.873Z,84960.00
2019-06-07T11:35:15.502Z,84672.00
2019-06-07T11:36:15.397Z,88064.00
2019-06-07T11:37:16.154Z,90688.00
2019-06-07T11:38:15.087Z,87936.00
2019-06-07T11:39:15.285Z,80640.00
2019-06-07T11:40:35.604Z,83968.00
2019-06-07T11:41:15.909Z,66304.00
2019-06-07T11:42:15.306Z,20224.00
2019-06-07T11:43:15.360Z,91712.00
2019-06-07T11:44:15.410Z,90528.00
2019-06-07T11:45:15.590Z,88704.00
2019-06-07T11:46:15.515Z,86368.00
2019-06-07T11:47:15.569Z,86144.00
2019-06-07T11:48:15.628Z,14540.00
2019-06-07T11:49:20.400Z,86592.00
2019-06-07T11:50:15.885Z,87104.00
2019-06-07T11:51:15.782Z,87072.00
2019-06-07T11:52:15.907Z,86848.00
2019-06-07T11:53:15.889Z,84000.00
2019-06-07T11:54:16.301Z,22112.00
2019-06-07T11:55:16.076Z,52320.00
2019-06-07T11:56:16.122Z,81248.00
2019-06-07T11:57:17.335Z,83712.00
2019-06-07T11:58:19.751Z,86496.00
2019-06-07T11:59:17.338Z,87968.00
2019-06-07T12:00:18.225Z,84672.00
2019-06-07T12:01:17.141Z,81728.00
2019-06-07T12:02:17.615Z,78560.00
2019-06-07T12:03:17.918Z,79200.00
2019-06-07T12:04:32.413Z,84288.00
2019-06-07T12:05:19.021Z,84608.00
2019-06-07T12:06:18.003Z,21792.00
2019-06-07T12:07:17.632Z,81792.00
2019-06-07T12:08:16.681Z,18336.00